Terminal Aerodrome Forecast
Issued by NWS Twin Cities, MN

Home | Current Version | Previous Version | Text Only | Print | Product List | Glossary Off
Versions: 1 2 3 4 5 6 7 8 9 10 11 12 13 14 15 16 17 18 19 20 21 22 23 24 25 26 27 28 29 30

000
FTUS43 KMPX 250544
TAFMSP
TAF
KMSP 250544Z 2506/2612 03010KT 6SM -DZ OVC050
     FM250630 03010KT 5SM -SN BKN025 OVC050
     FM250800 03015KT P6SM BKN025 OVC070
     FM251700 03007KT P6SM SCT025
     FM252100 20004KT P6SM FEW025 SCT100=

USA.gov is the U.S. government's official web portal to all federal, state and local government web resources and services.